createdAt,value
2018-11-13T00:02:18.589Z,12.83
2018-11-13T00:04:46.580Z,12.83
2018-11-13T00:07:14.677Z,12.83
2018-11-13T00:09:42.770Z,12.92
2018-11-13T00:12:10.817Z,12.94
2018-11-13T00:14:38.856Z,12.86
2018-11-13T00:17:06.884Z,12.89
2018-11-13T00:19:34.947Z,12.98
2018-11-13T00:22:02.958Z,12.99
2018-11-13T00:24:30.966Z,13.02
2018-11-13T00:26:59.297Z,13.03
2018-11-13T00:29:27.392Z,12.97
2018-11-13T00:31:55.337Z,12.92
2018-11-13T00:34:23.330Z,13.01
2018-11-13T00:36:51.414Z,13.03
2018-11-13T00:39:19.946Z,13.06
2018-11-13T00:41:47.537Z,12.95
2018-11-13T00:44:15.677Z,12.78
2018-11-13T00:46:43.821Z,12.70
2018-11-13T00:49:11.801Z,12.70
2018-11-13T00:51:39.965Z,12.79
2018-11-13T00:54:07.960Z,12.84
2018-11-13T00:56:36.091Z,12.74
2018-11-13T00:59:04.328Z,12.68
2018-11-13T01:01:32.386Z,12.64
2018-11-13T01:04:00.426Z,12.68
2018-11-13T01:06:28.565Z,12.71
2018-11-13T01:08:56.553Z,12.68
2018-11-13T01:11:24.636Z,12.80
2018-11-13T01:13:52.809Z,12.75
2018-11-13T01:16:20.796Z,12.80
2018-11-13T01:18:48.842Z,12.80
2018-11-13T01:21:17.009Z,12.89
2018-11-13T01:23:45.043Z,12.81
2018-11-13T01:26:13.089Z,12.74
2018-11-13T01:28:41.134Z,12.84
2018-11-13T01:31:09.104Z,12.84
2018-11-13T01:33:37.428Z,12.75
2018-11-13T01:36:05.729Z,12.78
2018-11-13T01:38:33.753Z,12.76
2018-11-13T01:41:01.925Z,12.78
2018-11-13T01:43:29.997Z,12.74
2018-11-13T01:45:58.008Z,12.63
2018-11-13T01:48:26.005Z,12.48
2018-11-13T01:50:54.014Z,12.36
2018-11-13T01:53:22.099Z,12.26
2018-11-13T01:55:50.081Z,12.18
2018-11-13T01:58:18.132Z,12.23
2018-11-13T02:00:46.068Z,12.03
2018-11-13T02:03:14.052Z,12.10
2018-11-13T02:05:42.029Z,12.06
2018-11-13T02:08:10.116Z,12.08
2018-11-13T02:10:38.123Z,12.14
2018-11-13T02:13:06.541Z,12.20
2018-11-13T02:15:34.642Z,12.16
2018-11-13T02:18:02.630Z,12.07
2018-11-13T02:20:30.636Z,12.14
2018-11-13T02:22:58.758Z,12.26
2018-11-13T02:25:26.825Z,12.35
2018-11-13T02:27:54.827Z,12.27
2018-11-13T02:30:23.593Z,12.20
2018-11-13T02:32:51.802Z,12.19
2018-11-13T02:35:19.958Z,12.21
2018-11-13T02:37:47.937Z,12.21
2018-11-13T02:40:16.229Z,12.26
2018-11-13T02:42:44.299Z,12.22
2018-11-13T02:45:15.425Z,12.27
2018-11-13T02:47:43.581Z,12.19
2018-11-13T02:50:13.855Z,12.23
2018-11-13T02:52:42.063Z,12.01
2018-11-13T02:55:10.790Z,12.11
2018-11-13T02:57:38.855Z,12.13
2018-11-13T03:00:09.786Z,12.23
2018-11-13T03:02:37.873Z,12.22
2018-11-13T03:05:07.116Z,12.20
2018-11-13T03:07:35.149Z,12.13
2018-11-13T03:10:03.686Z,12.19
2018-11-13T03:12:31.704Z,12.18
2018-11-13T03:14:59.798Z,12.27
2018-11-13T03:17:28.062Z,12.28
2018-11-13T03:19:56.577Z,12.25
2018-11-13T03:22:24.587Z,12.16
2018-11-13T03:24:53.064Z,12.16
2018-11-13T03:27:21.096Z,12.18
2018-11-13T03:29:49.061Z,12.19
2018-11-13T03:32:17.093Z,12.28
2018-11-13T03:34:45.073Z,12.27
2018-11-13T03:37:13.100Z,12.19
2018-11-13T03:39:41.144Z,12.01
2018-11-13T03:42:09.165Z,11.95
2018-11-13T03:44:37.292Z,11.98
2018-11-13T03:47:05.633Z,11.80
2018-11-13T03:49:33.616Z,11.92
2018-11-13T03:52:01.656Z,11.89
2018-11-13T03:54:29.633Z,11.83
2018-11-13T03:56:57.688Z,11.86
2018-11-13T03:59:25.687Z,11.95
2018-11-13T04:01:53.692Z,11.97
2018-11-13T04:04:21.704Z,11.98
2018-11-13T04:06:49.712Z,11.93
2018-11-13T04:09:17.826Z,12.02
2018-11-13T04:11:45.920Z,11.98
2018-11-13T04:14:13.945Z,12.06
2018-11-13T04:16:42.012Z,11.96
2018-11-13T04:19:10.048Z,11.77
2018-11-13T04:21:38.427Z,11.89
2018-11-13T04:24:06.839Z,12.01
2018-11-13T04:26:35.145Z,11.96
2018-11-13T04:29:03.184Z,12.00
2018-11-13T04:31:31.213Z,12.04
2018-11-13T04:33:59.217Z,12.11
2018-11-13T04:36:27.252Z,11.99
2018-11-13T04:38:55.342Z,12.16
2018-11-13T04:41:23.368Z,12.09
2018-11-13T04:43:51.372Z,12.03
2018-11-13T04:46:19.500Z,12.09
2018-11-13T04:48:47.603Z,12.08
2018-11-13T04:51:15.589Z,11.95
2018-11-13T04:53:43.607Z,12.08
2018-11-13T04:56:11.609Z,12.18
2018-11-13T04:58:39.697Z,12.21
2018-11-13T05:01:07.696Z,12.13
2018-11-13T05:03:35.793Z,12.10
2018-11-13T05:06:03.823Z,12.18
2018-11-13T05:08:31.837Z,12.16
2018-11-13T05:10:59.845Z,12.13
2018-11-13T05:13:27.945Z,12.18
2018-11-13T05:15:56.268Z,12.06
2018-11-13T05:18:24.349Z,12.09
2018-11-13T05:20:52.367Z,12.11
2018-11-13T05:23:20.403Z,11.94
2018-11-13T05:25:48.420Z,11.97
2018-11-13T05:28:16.469Z,11.96
2018-11-13T05:30:44.588Z,12.05
2018-11-13T05:33:12.569Z,12.12
2018-11-13T05:35:40.572Z,12.15
2018-11-13T05:38:08.617Z,12.25
2018-11-13T05:40:36.643Z,12.20
2018-11-13T05:43:04.677Z,12.22
2018-11-13T05:45:32.737Z,12.28
2018-11-13T05:48:00.806Z,12.18
2018-11-13T05:50:28.876Z,12.22
2018-11-13T05:52:56.896Z,12.13
2018-11-13T05:55:25.347Z,11.95
2018-11-13T05:57:53.356Z,12.02
2018-11-13T06:00:26.572Z,12.20
2018-11-13T06:02:54.849Z,12.06
2018-11-13T06:05:24.029Z,12.04
2018-11-13T06:07:52.080Z,12.08
2018-11-13T06:10:20.284Z,12.04
2018-11-13T06:12:48.534Z,11.97
2018-11-13T06:15:16.561Z,11.86
2018-11-13T06:17:44.724Z,11.78
2018-11-13T06:20:14.103Z,11.83
2018-11-13T06:22:42.328Z,11.84
2018-11-13T06:25:12.230Z,11.75
2018-11-13T06:27:41.322Z,11.50
2018-11-13T06:30:13.457Z,11.68
2018-11-13T06:32:41.549Z,11.63
2018-11-13T06:35:09.573Z,11.67
2018-11-13T06:37:37.980Z,11.69
2018-11-13T06:40:06.689Z,11.65
2018-11-13T06:42:34.765Z,11.74
2018-11-13T06:45:02.800Z,11.60
2018-11-13T06:47:30.866Z,11.79
2018-11-13T06:49:59.080Z,11.73
2018-11-13T06:52:27.098Z,11.68
2018-11-13T06:55:07.821Z,11.67
2018-11-13T06:57:35.869Z,11.72
2018-11-13T07:00:06.002Z,11.68
2018-11-13T07:02:34.028Z,11.77
2018-11-13T07:05:02.072Z,11.74
2018-11-13T07:07:30.078Z,11.86
2018-11-13T07:09:58.076Z,11.92
2018-11-13T07:12:26.194Z,11.87
2018-11-13T07:14:54.292Z,11.76
2018-11-13T07:17:22.375Z,11.77
2018-11-13T07:19:50.370Z,11.89
2018-11-13T07:22:18.516Z,11.78
2018-11-13T07:24:46.497Z,11.70
2018-11-13T07:27:14.586Z,11.72
2018-11-13T07:29:42.609Z,11.85
2018-11-13T07:32:10.633Z,11.73
2018-11-13T07:34:38.609Z,11.71
2018-11-13T07:37:06.666Z,11.86
2018-11-13T07:39:34.696Z,11.86
2018-11-13T07:42:02.693Z,11.80
2018-11-13T07:44:30.729Z,11.88
2018-11-13T07:46:58.782Z,11.80
2018-11-13T07:49:26.789Z,11.79
2018-11-13T07:51:54.792Z,11.67
2018-11-13T07:54:22.924Z,11.74
2018-11-13T07:56:51.073Z,11.73
2018-11-13T07:59:19.140Z,11.72
2018-11-13T08:01:47.201Z,11.59
2018-11-13T08:04:15.257Z,11.58
2018-11-13T08:06:43.334Z,11.62
2018-11-13T08:09:11.281Z,11.70
2018-11-13T08:11:39.293Z,11.62
2018-11-13T08:14:07.285Z,11.52
2018-11-13T08:16:35.314Z,11.46
2018-11-13T08:19:03.273Z,11.56
2018-11-13T08:21:31.573Z,11.50
2018-11-13T08:23:59.857Z,11.40
2018-11-13T08:26:27.881Z,11.53
2018-11-13T08:28:55.951Z,11.63
2018-11-13T08:31:24.137Z,11.50
2018-11-13T08:33:52.307Z,11.59
2018-11-13T08:36:20.342Z,11.54
2018-11-13T08:38:48.335Z,11.81
2018-11-13T08:41:16.356Z,11.96
2018-11-13T08:43:44.386Z,12.13
2018-11-13T08:46:12.317Z,12.36
2018-11-13T08:48:40.353Z,12.44
2018-11-13T08:51:08.349Z,13.18
2018-11-13T08:53:36.357Z,14.26
2018-11-13T08:56:04.457Z,15.26
2018-11-13T08:58:32.607Z,16.13
2018-11-13T09:01:01.423Z,16.74
2018-11-13T09:03:29.497Z,17.51
2018-11-13T09:05:57.503Z,17.99
2018-11-13T09:08:25.517Z,17.21
2018-11-13T09:10:53.516Z,16.21
2018-11-13T09:13:21.553Z,15.39
2018-11-13T09:15:49.613Z,15.03
2018-11-13T09:18:17.617Z,14.37
2018-11-13T09:20:45.828Z,14.41
2018-11-13T09:23:13.869Z,13.74
2018-11-13T09:25:41.896Z,13.48
2018-11-13T09:28:09.981Z,13.28
2018-11-13T09:30:38.357Z,13.17
2018-11-13T09:33:06.235Z,13.04
2018-11-13T09:35:34.177Z,13.13
2018-11-13T09:38:02.213Z,12.98
2018-11-13T09:40:30.208Z,12.78
2018-11-13T09:42:58.224Z,12.82
2018-11-13T09:45:26.248Z,12.74
2018-11-13T09:47:54.393Z,12.90
2018-11-13T09:50:22.376Z,12.54
2018-11-13T09:52:51.680Z,12.57
2018-11-13T09:55:21.025Z,12.71
2018-11-13T09:57:49.197Z,12.73
2018-11-13T10:00:21.368Z,12.87
2018-11-13T10:02:51.111Z,13.02
2018-11-13T10:05:19.606Z,12.88
2018-11-13T10:07:47.821Z,13.06
2018-11-13T10:10:15.896Z,13.06
2018-11-13T10:12:43.837Z,13.21
2018-11-13T10:15:14.402Z,13.16
2018-11-13T10:17:42.713Z,12.99
2018-11-13T10:20:12.302Z,12.77
2018-11-13T10:22:40.821Z,12.75
2018-11-13T10:25:09.645Z,12.68
2018-11-13T10:27:37.728Z,12.59
2018-11-13T10:30:08.255Z,12.52
2018-11-13T10:32:36.237Z,12.59
2018-11-13T10:35:04.418Z,12.43
2018-11-13T10:37:32.438Z,12.63
2018-11-13T10:40:00.443Z,12.53
2018-11-13T10:42:28.661Z,12.50
2018-11-13T10:44:56.683Z,12.50
2018-11-13T10:47:24.653Z,12.55
2018-11-13T10:49:52.657Z,12.47
2018-11-13T10:52:20.657Z,12.44
2018-11-13T10:54:48.645Z,12.43
2018-11-13T10:57:16.637Z,12.65
2018-11-13T10:59:44.637Z,12.58
2018-11-13T11:02:18.190Z,12.72
2018-11-13T11:04:49.139Z,12.84
2018-11-13T11:07:17.141Z,12.83
2018-11-13T11:09:45.466Z,12.59
2018-11-13T11:12:13.858Z,12.54
2018-11-13T11:14:42.101Z,12.66
2018-11-13T11:17:10.573Z,12.65
2018-11-13T11:19:38.585Z,12.81
2018-11-13T11:22:06.768Z,12.92
2018-11-13T11:24:34.812Z,12.93
2018-11-13T11:27:02.829Z,12.95
2018-11-13T11:29:30.842Z,12.83
2018-11-13T11:31:58.892Z,13.01
2018-11-13T11:34:27.129Z,12.66
2018-11-13T11:36:55.269Z,12.82
2018-11-13T11:39:23.524Z,12.79
2018-11-13T11:41:51.664Z,12.86
2018-11-13T11:44:19.708Z,13.08
2018-11-13T11:46:47.686Z,13.13
2018-11-13T11:49:15.711Z,13.16
2018-11-13T11:51:43.957Z,13.18
2018-11-13T11:54:12.038Z,12.84
2018-11-13T11:56:40.045Z,12.78
2018-11-13T11:59:08.044Z,12.67
2018-11-13T12:01:36.024Z,12.60
2018-11-13T12:04:04.129Z,12.71
2018-11-13T12:06:32.125Z,12.64
2018-11-13T12:09:00.100Z,12.78
2018-11-13T12:11:28.089Z,12.98
2018-11-13T12:13:56.064Z,13.09
2018-11-13T12:16:24.056Z,13.17
2018-11-13T12:18:52.058Z,13.04
2018-11-13T12:21:20.094Z,13.01
2018-11-13T12:23:48.101Z,13.11
2018-11-13T12:26:16.104Z,13.23
2018-11-13T12:28:44.119Z,13.29
2018-11-13T12:31:12.219Z,13.29
2018-11-13T12:33:40.228Z,13.06
2018-11-13T12:36:08.222Z,13.29
2018-11-13T12:38:36.304Z,12.99
2018-11-13T12:41:04.456Z,13.00
2018-11-13T12:43:33.569Z,13.10
2018-11-13T12:46:01.640Z,13.17
2018-11-13T12:48:29.632Z,13.31
2018-11-13T12:51:05.144Z,13.01
2018-11-13T12:53:33.980Z,13.13
2018-11-13T12:56:02.031Z,13.04
2018-11-13T12:58:31.012Z,13.04
2018-11-13T13:00:58.999Z,13.19
2018-11-13T13:03:27.025Z,13.06
2018-11-13T13:05:55.224Z,13.07
2018-11-13T13:08:23.261Z,13.21
2018-11-13T13:10:51.370Z,12.92
2018-11-13T13:13:19.353Z,12.96
2018-11-13T13:15:47.333Z,12.80
2018-11-13T13:18:15.329Z,12.59
2018-11-13T13:20:43.326Z,12.68
2018-11-13T13:23:11.313Z,12.63
2018-11-13T13:25:39.304Z,12.68
2018-11-13T13:28:07.378Z,12.60
2018-11-13T13:30:35.382Z,12.56
2018-11-13T13:33:03.381Z,12.45
2018-11-13T13:35:46.601Z,12.52
2018-11-13T13:38:14.705Z,12.51
2018-11-13T13:40:43.801Z,12.51
2018-11-13T13:43:12.649Z,12.63
2018-11-13T13:45:41.461Z,12.50
2018-11-13T13:48:09.501Z,12.22
2018-11-13T13:50:37.885Z,12.15
2018-11-13T13:53:06.381Z,11.89
2018-11-13T13:55:34.375Z,12.04
2018-11-13T13:58:02.384Z,12.25
2018-11-13T14:00:30.690Z,12.30
2018-11-13T14:02:58.644Z,12.38
2018-11-13T14:05:26.691Z,12.31
2018-11-13T14:07:54.701Z,12.22
2018-11-13T14:10:22.949Z,12.55
2018-11-13T14:12:50.963Z,12.54
2018-11-13T14:15:19.210Z,12.46
2018-11-13T14:17:47.381Z,12.49
2018-11-13T14:20:17.781Z,12.53
2018-11-13T14:22:45.777Z,12.56
2018-11-13T14:25:14.404Z,12.62
2018-11-13T14:27:42.493Z,12.50
2018-11-13T14:30:19.153Z,12.60
2018-11-13T14:32:47.930Z,12.61
2018-11-13T14:35:16.333Z,12.45
2018-11-13T14:37:44.413Z,12.38
2018-11-13T14:40:16.041Z,12.32
2018-11-13T14:42:44.664Z,12.35
2018-11-13T14:45:12.678Z,12.26
2018-11-13T14:47:41.791Z,12.24
2018-11-13T14:50:11.950Z,12.35
2018-11-13T14:52:40.081Z,12.43
2018-11-13T14:55:10.659Z,12.47
2018-11-13T14:57:38.729Z,12.60
2018-11-13T15:00:11.145Z,12.65
2018-11-13T15:02:39.440Z,12.68
2018-11-13T15:05:08.727Z,12.49
2018-11-13T15:07:36.707Z,12.41
2018-11-13T15:10:06.481Z,12.26
2018-11-13T15:12:34.477Z,12.02
2018-11-13T15:15:02.518Z,12.03
2018-11-13T15:17:30.445Z,11.85
2018-11-13T15:19:58.412Z,12.01
2018-11-13T15:22:26.519Z,11.64
2018-11-13T15:24:54.393Z,11.62
2018-11-13T15:27:22.597Z,11.49
2018-11-13T15:29:50.648Z,11.47
2018-11-13T15:32:18.633Z,11.46
2018-11-13T15:34:46.614Z,11.66
2018-11-13T15:37:15.294Z,11.63
2018-11-13T15:39:43.284Z,11.66
2018-11-13T15:42:11.472Z,11.46
2018-11-13T15:44:39.608Z,11.56
2018-11-13T15:47:07.544Z,11.65
2018-11-13T15:49:35.533Z,11.25
2018-11-13T15:52:03.690Z,11.33
2018-11-13T15:54:31.590Z,11.33
2018-11-13T15:56:59.598Z,11.19
2018-11-13T15:59:27.624Z,11.25
2018-11-13T16:01:56.693Z,11.32
2018-11-13T16:04:24.694Z,11.14
2018-11-13T16:06:53.752Z,11.14
2018-11-13T16:09:21.752Z,11.05
2018-11-13T16:11:49.753Z,11.16
2018-11-13T16:14:17.768Z,10.97
2018-11-13T16:16:45.757Z,10.99
2018-11-13T16:19:13.753Z,11.03
2018-11-13T16:21:41.798Z,10.79
2018-11-13T16:24:09.762Z,10.74
2018-11-13T16:26:37.782Z,10.70
2018-11-13T16:29:05.957Z,10.76
2018-11-13T16:31:33.997Z,10.72
2018-11-13T16:34:01.984Z,10.72
2018-11-13T16:36:30.068Z,10.72
2018-11-13T16:38:58.117Z,10.63
2018-11-13T16:41:26.445Z,10.55
2018-11-13T16:43:54.457Z,10.53
2018-11-13T16:46:22.500Z,10.68
2018-11-13T16:48:50.592Z,10.57
2018-11-13T16:51:18.736Z,10.57
2018-11-13T16:53:52.292Z,10.63
2018-11-13T16:56:20.216Z,10.63
2018-11-13T16:58:48.207Z,10.61
2018-11-13T17:01:16.403Z,10.58
2018-11-13T17:03:44.376Z,10.53
2018-11-13T17:06:12.380Z,10.51
2018-11-13T17:08:40.317Z,10.52
2018-11-13T17:11:08.311Z,10.46
2018-11-13T17:13:36.322Z,10.54
2018-11-13T17:16:10.054Z,10.57
2018-11-13T17:18:38.125Z,10.55
2018-11-13T17:21:06.116Z,10.56
2018-11-13T17:23:34.138Z,10.53
2018-11-13T17:26:02.297Z,10.44
2018-11-13T17:28:30.185Z,10.47
2018-11-13T17:30:58.202Z,10.41
2018-11-13T17:33:26.197Z,10.45
2018-11-13T17:35:54.169Z,10.44
2018-11-13T17:38:22.157Z,10.53
2018-11-13T17:40:50.137Z,10.68
2018-11-13T17:43:18.141Z,10.73
2018-11-13T17:45:46.127Z,10.81
2018-11-13T17:48:14.196Z,10.87
2018-11-13T17:50:43.252Z,10.90
2018-11-13T17:53:11.684Z,10.93
2018-11-13T17:55:39.980Z,10.98
2018-11-13T17:58:11.418Z,10.96
2018-11-13T18:00:42.822Z,10.91
2018-11-13T18:03:11.983Z,10.84
2018-11-13T18:05:40.537Z,10.81
2018-11-13T18:08:09.257Z,10.59
2018-11-13T18:10:38.374Z,10.69
2018-11-13T18:13:06.905Z,10.61
2018-11-13T18:15:35.004Z,10.58
2018-11-13T18:18:03.352Z,10.57
2018-11-13T18:20:32.682Z,10.48
2018-11-13T18:23:00.688Z,10.38
2018-11-13T18:25:28.957Z,10.49
2018-11-13T18:27:58.047Z,10.49
2018-11-13T18:30:27.185Z,10.56
2018-11-13T18:32:55.681Z,10.57
2018-11-13T18:35:24.982Z,10.67
2018-11-13T18:37:53.738Z,10.56
2018-11-13T18:40:22.345Z,10.49
2018-11-13T18:42:51.121Z,10.23
2018-11-13T18:45:21.757Z,10.29
2018-11-13T18:47:49.795Z,10.30
2018-11-13T18:50:20.118Z,10.34
2018-11-13T18:52:48.104Z,10.25
2018-11-13T18:55:16.469Z,10.32
2018-11-13T18:57:44.776Z,10.30
2018-11-13T19:00:14.892Z,10.28
2018-11-13T19:02:42.965Z,10.21
2018-11-13T19:05:11.856Z,10.28
2018-11-13T19:07:40.200Z,10.28
2018-11-13T19:10:14.233Z,10.25
2018-11-13T19:12:42.373Z,10.33
2018-11-13T19:15:11.768Z,10.25
2018-11-13T19:17:39.845Z,10.31
2018-11-13T19:20:10.841Z,10.33
2018-11-13T19:22:38.890Z,10.43
2018-11-13T19:25:07.606Z,10.40
2018-11-13T19:27:35.634Z,10.40
2018-11-13T19:30:04.781Z,10.51
2018-11-13T19:32:32.665Z,10.55
2018-11-13T19:35:00.697Z,10.73
2018-11-13T19:37:28.683Z,10.63
2018-11-13T19:39:56.757Z,10.59
2018-11-13T19:42:24.701Z,10.56
2018-11-13T19:44:52.860Z,10.50
2018-11-13T19:47:20.853Z,10.43
2018-11-13T19:49:49.092Z,10.57
2018-11-13T19:52:17.020Z,10.59
2018-11-13T19:54:45.009Z,10.66
2018-11-13T19:57:13.004Z,10.71
2018-11-13T19:59:40.999Z,10.82
2018-11-13T20:02:10.102Z,10.76
2018-11-13T20:04:38.168Z,10.85
2018-11-13T20:07:06.298Z,10.93
2018-11-13T20:09:34.289Z,10.85
2018-11-13T20:12:02.348Z,10.72
2018-11-13T20:14:30.338Z,10.73
2018-11-13T20:16:58.451Z,10.66
2018-11-13T20:19:26.429Z,10.57
2018-11-13T20:21:54.534Z,10.60
2018-11-13T20:24:22.561Z,10.49
2018-11-13T20:26:50.590Z,10.50
2018-11-13T20:29:18.614Z,10.54
2018-11-13T20:31:46.608Z,10.49
2018-11-13T20:34:14.673Z,10.46
2018-11-13T20:36:42.761Z,10.58
2018-11-13T20:39:12.428Z,10.37
2018-11-13T20:41:40.386Z,10.29
2018-11-13T20:44:08.481Z,10.36
2018-11-13T20:46:36.566Z,10.41
2018-11-13T20:49:04.788Z,10.48
2018-11-13T20:51:32.931Z,10.40
2018-11-13T20:54:00.886Z,10.37
2018-11-13T20:56:28.958Z,10.62
2018-11-13T20:58:57.038Z,10.52
2018-11-13T21:01:25.188Z,10.54
2018-11-13T21:03:53.269Z,10.26
2018-11-13T21:06:21.353Z,10.12
2018-11-13T21:08:49.364Z,10.05
2018-11-13T21:11:17.501Z,10.00
2018-11-13T21:13:45.729Z,10.09
2018-11-13T21:16:13.859Z,9.96
2018-11-13T21:18:41.855Z,9.98
2018-11-13T21:21:09.900Z,9.94
2018-11-13T21:23:38.002Z,9.92
2018-11-13T21:26:06.132Z,9.88
2018-11-13T21:28:34.215Z,9.74
2018-11-13T21:31:02.197Z,9.76
2018-11-13T21:33:30.328Z,9.73
2018-11-13T21:35:58.365Z,9.83
2018-11-13T21:38:26.529Z,9.87
2018-11-13T21:40:54.546Z,9.89
2018-11-13T21:43:22.593Z,9.71
2018-11-13T21:45:50.687Z,9.74
2018-11-13T21:48:18.713Z,9.70
2018-11-13T21:50:46.697Z,9.76
2018-11-13T21:53:14.749Z,9.71
2018-11-13T21:55:42.894Z,9.63
2018-11-13T21:58:10.804Z,9.62
2018-11-13T22:00:39.140Z,9.47
2018-11-13T22:03:07.960Z,9.38
2018-11-13T22:05:36.630Z,9.43
2018-11-13T22:08:04.599Z,9.43
2018-11-13T22:10:32.567Z,9.48
2018-11-13T22:13:00.549Z,9.51
2018-11-13T22:15:29.445Z,9.38
2018-11-13T22:17:57.452Z,9.35
2018-11-13T22:20:25.704Z,9.38
2018-11-13T22:22:54.999Z,9.43
2018-11-13T22:25:24.468Z,9.44
2018-11-13T22:27:53.634Z,9.42
2018-11-13T22:30:22.847Z,9.30
2018-11-13T22:32:50.837Z,9.32
2018-11-13T22:35:19.514Z,9.46
2018-11-13T22:37:47.560Z,9.60
2018-11-13T22:40:16.848Z,9.60
2018-11-13T22:42:45.022Z,9.51
2018-11-13T22:45:14.916Z,9.48
2018-11-13T22:47:43.064Z,9.53
2018-11-13T22:50:13.019Z,9.50
2018-11-13T22:52:41.590Z,9.57
2018-11-13T22:55:10.835Z,9.50
2018-11-13T22:57:38.833Z,9.65
2018-11-13T23:00:39.601Z,9.68
2018-11-13T23:03:08.984Z,9.57
2018-11-13T23:05:36.988Z,9.63
2018-11-13T23:08:05.985Z,9.61
2018-11-13T23:10:33.973Z,9.64
2018-11-13T23:13:02.121Z,9.60
2018-11-13T23:15:30.069Z,9.65
2018-11-13T23:17:58.040Z,9.62
2018-11-13T23:20:26.066Z,9.61
2018-11-13T23:22:54.175Z,9.56
2018-11-13T23:25:22.204Z,9.63
2018-11-13T23:27:51.216Z,9.64
2018-11-13T23:30:22.257Z,9.67
2018-11-13T23:32:50.584Z,9.63
2018-11-13T23:35:18.828Z,9.64
2018-11-13T23:37:48.055Z,9.63
2018-11-13T23:40:17.352Z,9.59
2018-11-13T23:42:45.910Z,9.59
2018-11-13T23:45:14.921Z,9.57
2018-11-13T23:47:43.488Z,9.58
2018-11-13T23:50:11.813Z,9.62
2018-11-13T23:52:39.876Z,9.75
2018-11-13T23:55:09.120Z,9.64
2018-11-13T23:57:37.114Z,9.73
